Time;durP1;ratioP1;P1;durP2;ratioP2;P2;SDS_P1;SDS_P2;PMS_P1;PMS_P2;Temp;Humidity;BMP_temperature;BMP_pressure;BME280_temperature;BME280_humidity;BME280_pressure;Samples;Min_cycle;Max_cycle;Signal;HPM_P1;HPM_P2
2021/01/11 00:01:16;;;;;;;21.40;18.48;;;;;;;0.34;69.82;100934.00;10416826;28;20543;-67
2021/01/11 00:06:18;;;;;;;21.77;17.52;;;;;;;0.19;69.59;100919.56;10419389;28;20045;-68
2021/01/11 00:11:22;;;;;;;22.33;17.45;;;;;;;0.20;70.01;100915.19;10428255;28;20503;-66
2021/01/11 00:16:24;;;;;;;20.33;17.52;;;;;;;0.22;69.79;100914.22;10434413;28;20071;-66
2021/01/11 00:21:26;;;;;;;22.17;18.02;;;;;;;0.15;69.51;100908.31;10426450;28;20057;-65
2021/01/11 00:26:27;;;;;;;20.75;18.50;;;;;;;-0.07;70.15;100908.00;10430464;28;20111;-66
2021/01/11 00:31:28;;;;;;;22.40;18.77;;;;;;;-0.11;70.30;100889.81;10430396;28;20132;-67
2021/01/11 00:36:30;;;;;;;24.80;19.83;;;;;;;-0.25;70.03;100877.09;10439714;28;20172;-66
2021/01/11 00:41:31;;;;;;;23.70;18.38;;;;;;;-0.25;70.43;100898.88;10423945;28;20053;-66
2021/01/11 00:46:32;;;;;;;22.25;19.85;;;;;;;-0.30;69.86;100889.41;10420085;28;20044;-66
2021/01/11 00:51:36;;;;;;;23.83;18.73;;;;;;;-0.38;70.47;100887.00;10427589;28;20041;-66
2021/01/11 00:56:37;;;;;;;22.27;19.45;;;;;;;-0.36;70.42;100896.53;10429075;28;20090;-66
2021/01/11 01:01:49;;;;;;;22.50;19.27;;;;;;;-0.37;69.81;100905.28;10429050;28;20084;-66
2021/01/11 01:06:52;;;;;;;23.55;17.95;;;;;;;-0.29;69.88;100936.47;10424987;28;20087;-65
2021/01/11 01:11:53;;;;;;;23.17;19.05;;;;;;;-0.30;69.83;100926.03;10426579;28;20044;-66
2021/01/11 01:16:54;;;;;;;21.25;18.13;;;;;;;-0.29;69.82;100925.16;10421907;28;20044;-66
2021/01/11 01:21:56;;;;;;;20.60;17.83;;;;;;;-0.42;70.33;100916.72;10426317;28;20137;-67
2021/01/11 01:26:57;;;;;;;21.40;18.10;;;;;;;-0.27;69.47;100954.75;10426816;28;20076;-70
2021/01/11 01:31:59;;;;;;;20.27;18.08;;;;;;;-0.30;69.74;100942.63;10423603;28;20052;-66
2021/01/11 01:37:00;;;;;;;24.27;17.75;;;;;;;-0.31;69.54;100953.97;10422416;28;20051;-66
2021/01/11 01:42:02;;;;;;;20.38;17.00;;;;;;;-0.37;70.09;100948.91;10425539;28;20068;-66
2021/01/11 01:47:03;;;;;;;22.05;16.65;;;;;;;-0.44;70.68;100949.94;10425268;28;20064;-66
2021/01/11 01:52:07;;;;;;;21.55;18.70;;;;;;;-0.49;70.53;100936.97;10421624;28;20049;-65
2021/01/11 01:57:08;;;;;;;19.77;17.02;;;;;;;-0.74;70.24;100906.13;10425323;28;20050;-70
2021/01/11 02:02:14;;;;;;;22.77;17.77;;;;;;;-0.65;71.79;100953.91;10435203;28;20300;-67
2021/01/11 02:07:40;;;;;;;21.23;17.30;;;;;;;-0.64;71.03;100943.41;10435319;28;20053;-66
2021/01/11 02:12:57;;;;;;;21.77;16.90;;;;;;;-0.65;71.02;100946.06;10427173;28;20067;-66
2021/01/11 02:18:09;;;;;;;21.65;18.00;;;;;;;-0.85;72.38;100934.31;10444787;28;20033;-66
2021/01/11 02:23:49;;;;;;;19.42;16.13;;;;;;;-0.87;72.15;100932.59;10483146;22;20124;-70
2021/01/11 02:28:58;;;;;;;18.88;16.70;;;;;;;-0.90;71.47;100923.09;10418794;28;20098;-74
2021/01/11 02:34:00;;;;;;;20.38;16.00;;;;;;;-0.92;71.38;100917.03;10420998;28;20437;-70
2021/01/11 02:39:01;;;;;;;20.00;17.75;;;;;;;-0.95;70.99;100915.34;10424566;28;20122;-71
2021/01/11 02:44:03;;;;;;;20.02;16.92;;;;;;;-0.96;71.24;100911.03;10416341;28;20122;-70
2021/01/11 02:49:23;;;;;;;18.75;16.80;;;;;;;-0.97;71.43;100913.66;10411808;28;20052;-68
2021/01/11 02:54:37;;;;;;;18.80;16.65;;;;;;;-1.12;71.21;100891.34;10414357;28;20106;-71
2021/01/11 02:59:50;;;;;;;20.13;16.65;;;;;;;-1.16;71.27;100890.53;10409798;28;20045;-69
2021/01/11 03:04:51;;;;;;;21.25;16.92;;;;;;;-1.09;71.42;100899.97;10407790;28;20116;-70
2021/01/11 03:09:53;;;;;;;19.17;15.82;;;;;;;-1.14;70.90;100894.00;10416118;28;20098;-69
2021/01/11 03:14:54;;;;;;;20.23;16.30;;;;;;;-1.04;70.85;100896.41;10424544;28;20130;-70
2021/01/11 03:19:55;;;;;;;19.42;15.93;;;;;;;-1.10;70.01;100879.94;10418868;28;20057;-70
2021/01/11 03:24:56;;;;;;;20.45;15.27;;;;;;;-0.97;70.09;100887.53;10434117;28;20045;-70
2021/01/11 03:29:57;;;;;;;18.33;15.68;;;;;;;-0.91;69.97;100898.69;10403585;28;20123;-69
2021/01/11 03:34:58;;;;;;;16.70;14.85;;;;;;;-0.94;70.03;100892.69;10403882;28;20145;-70
2021/01/11 03:40:00;;;;;;;19.13;15.77;;;;;;;-0.97;70.24;100891.00;10408072;28;20049;-69
2021/01/11 03:45:01;;;;;;;19.73;16.55;;;;;;;-1.04;70.00;100885.94;10415142;28;20132;-71
2021/01/11 03:50:06;;;;;;;18.33;15.02;;;;;;;-0.95;70.03;100886.59;10409782;28;20045;-71
2021/01/11 03:55:07;;;;;;;21.50;16.07;;;;;;;-1.06;70.27;100893.81;10415474;28;20119;-70
2021/01/11 04:00:09;;;;;;;19.70;15.10;;;;;;;-1.19;70.66;100880.16;10416073;28;20288;-70
2021/01/11 04:05:10;;;;;;;17.70;15.85;;;;;;;-1.28;71.44;100889.03;10409226;28;20049;-70
2021/01/11 04:10:12;;;;;;;18.38;15.48;;;;;;;-1.33;71.28;100887.44;10415674;28;20075;-70
2021/01/11 04:15:14;;;;;;;17.10;13.70;;;;;;;-1.28;71.70;100877.75;10426629;28;20487;-71
2021/01/11 04:20:15;;;;;;;17.00;14.60;;;;;;;-1.36;71.48;100879.66;10426949;28;20418;-71
2021/01/11 04:25:16;;;;;;;19.08;15.40;;;;;;;-1.24;70.73;100876.78;10417833;28;20491;-72
2021/01/11 04:30:19;;;;;;;18.20;13.98;;;;;;;-1.29;70.53;100878.63;10414801;28;20503;-70
2021/01/11 04:35:22;;;;;;;18.58;15.65;;;;;;;-1.46;70.75;100868.53;10416978;28;20048;-70
2021/01/11 04:40:23;;;;;;;20.17;14.93;;;;;;;-1.40;70.74;100873.63;10447887;28;20713;-71
2021/01/11 04:45:25;;;;;;;18.08;13.95;;;;;;;-1.23;70.51;100878.53;10410234;28;20041;-70
2021/01/11 04:50:28;;;;;;;20.67;16.17;;;;;;;-1.22;70.08;100881.97;10413431;28;20064;-71
2021/01/11 04:55:34;;;;;;;18.38;15.88;;;;;;;-1.44;70.22;100877.22;10405094;28;20535;-68
2021/01/11 05:00:37;;;;;;;22.17;14.30;;;;;;;-1.49;70.73;100881.66;10408238;28;20103;-70
2021/01/11 05:05:40;;;;;;;16.55;14.27;;;;;;;-1.52;70.88;100866.91;10417118;28;20053;-70
2021/01/11 05:10:42;;;;;;;17.48;15.18;;;;;;;-1.68;71.23;100857.66;10441348;28;20049;-71
2021/01/11 05:15:44;;;;;;;18.15;15.68;;;;;;;-1.65;71.26;100862.81;10405313;28;20122;-69
2021/01/11 05:20:47;;;;;;;19.58;15.40;;;;;;;-1.74;70.70;100860.41;10412612;28;20068;-71
2021/01/11 05:25:48;;;;;;;17.63;14.65;;;;;;;-1.80;71.60;100856.19;10406718;28;20175;-70
2021/01/11 05:30:50;;;;;;;19.27;15.45;;;;;;;-1.78;70.87;100863.06;10405655;28;20529;-70
2021/01/11 05:36:12;;;;;;;18.80;15.63;;;;;;;-1.75;70.82;100872.59;10421045;28;20086;-70
2021/01/11 05:41:17;;;;;;;17.67;14.05;;;;;;;-1.66;70.97;100871.56;10421179;28;20132;-70
2021/01/11 05:46:28;;;;;;;20.70;14.82;;;;;;;-1.39;69.60;100874.50;10425637;28;20057;-71
2021/01/11 05:51:32;;;;;;;18.75;14.82;;;;;;;-1.36;69.52;100877.06;10443930;28;20269;-70
2021/01/11 05:56:58;;;;;;;18.42;15.27;;;;;;;-1.35;69.40;100883.97;10442548;28;20033;-71
2021/01/11 06:02:00;;;;;;;18.40;15.13;;;;;;;-1.13;68.73;100893.06;10460127;28;20075;-71
2021/01/11 06:07:02;;;;;;;17.52;15.13;;;;;;;-1.22;68.81;100887.22;10420027;28;20056;-70
2021/01/11 06:12:05;;;;;;;18.48;14.85;;;;;;;-1.17;68.69;100886.22;10407244;28;20270;-70
2021/01/11 06:17:07;;;;;;;19.98;15.73;;;;;;;-1.47;69.30;100872.91;10409256;28;20068;-71
2021/01/11 06:22:09;;;;;;;21.27;16.40;;;;;;;-1.54;70.19;100881.75;10405065;28;20321;-69
2021/01/11 06:27:16;;;;;;;19.05;15.40;;;;;;;-1.44;69.64;100885.91;10409750;28;20106;-71
2021/01/11 06:32:19;;;;;;;18.95;16.50;;;;;;;-1.38;69.98;100876.22;10417355;28;20053;-70
2021/01/11 06:37:24;;;;;;;17.02;14.85;;;;;;;-1.57;70.64;100871.38;10413832;28;20054;-69
2021/01/11 06:42:30;;;;;;;19.65;15.40;;;;;;;-1.53;70.85;100862.59;10415662;28;20059;-69
2021/01/11 06:47:36;;;;;;;21.77;16.48;;;;;;;-1.63;70.54;100840.19;10417446;28;20431;-71
2021/01/11 06:52:38;;;;;;;16.75;14.57;;;;;;;-1.64;71.01;100854.97;10423131;28;20382;-70
2021/01/11 06:57:40;;;;;;;19.67;16.40;;;;;;;-1.70;71.47;100849.88;10414625;28;20053;-68
2021/01/11 07:02:42;;;;;;;24.13;21.73;;;;;;;-1.68;71.52;100845.50;10418137;28;20049;-70
2021/01/11 07:07:43;;;;;;;21.00;16.60;;;;;;;-1.70;72.32;100834.22;10425170;28;20041;-70
2021/01/11 07:12:45;;;;;;;20.73;17.25;;;;;;;-1.56;73.28;100844.38;10408672;28;20141;-69
2021/01/11 07:17:49;;;;;;;21.33;17.25;;;;;;;-1.62;73.12;100842.75;10418582;28;20191;-68
2021/01/11 07:22:54;;;;;;;23.58;18.00;;;;;;;-1.46;73.17;100877.22;10415656;28;20057;-71
2021/01/11 07:28:03;;;;;;;20.20;16.63;;;;;;;-1.40;72.75;100883.22;10408115;28;20374;-71
2021/01/11 07:33:11;;;;;;;20.02;16.05;;;;;;;-1.25;72.66;100890.72;10403624;28;20458;-71
2021/01/11 07:38:12;;;;;;;20.90;16.50;;;;;;;-1.25;72.89;100882.91;10413744;28;20037;-72
2021/01/11 07:43:23;;;;;;;21.42;17.30;;;;;;;-1.18;72.12;100884.50;10437536;28;20079;-70
2021/01/11 07:48:25;;;;;;;20.90;18.27;;;;;;;-1.17;70.55;100881.00;10427315;28;20468;-71
2021/01/11 07:53:34;;;;;;;21.75;17.13;;;;;;;-0.92;70.11;100896.13;10429535;28;20775;-70
2021/01/11 07:58:37;;;;;;;23.65;18.80;;;;;;;-1.09;69.82;100867.75;10408049;28;20049;-70
2021/01/11 08:03:38;;;;;;;22.55;16.73;;;;;;;-1.20;70.07;100865.38;10412507;28;20041;-70
2021/01/11 08:08:43;;;;;;;22.88;16.85;;;;;;;-1.15;70.72;100858.28;10406707;28;20154;-69
2021/01/11 08:13:44;;;;;;;21.48;16.38;;;;;;;-1.03;70.18;100862.38;10414504;28;20073;-71
2021/01/11 08:18:46;;;;;;;18.75;15.38;;;;;;;-1.07;70.16;100855.50;10404976;28;20053;-69
2021/01/11 08:23:59;;;;;;;18.95;15.13;;;;;;;-1.10;70.93;100856.44;10416338;28;20415;-70
2021/01/11 08:29:01;;;;;;;21.00;14.88;;;;;;;-0.94;70.59;100863.94;10402900;28;20562;-71
2021/01/11 08:34:02;;;;;;;19.02;15.55;;;;;;;-0.94;70.51;100890.94;10415495;28;20048;-71
2021/01/11 08:39:08;;;;;;;20.13;16.52;;;;;;;-0.81;70.43;100888.91;10413252;28;20079;-72
2021/01/11 08:44:23;;;;;;;18.25;14.18;;;;;;;-0.92;70.49;100869.97;10406707;28;20049;-71
2021/01/11 08:49:25;;;;;;;18.48;14.23;;;;;;;-0.67;70.29;100874.66;10409385;28;20107;-71
2021/01/11 08:54:28;;;;;;;17.15;14.27;;;;;;;-0.42;69.48;100880.13;10402336;28;20060;-71
2021/01/11 08:59:29;;;;;;;19.85;16.33;;;;;;;-0.31;68.96;100877.25;10415096;28;20053;-69
2021/01/11 09:04:35;;;;;;;17.85;13.43;;;;;;;-0.06;68.43;100883.56;10403781;28;20048;-70
2021/01/11 09:09:37;;;;;;;20.75;14.73;;;;;;;0.17;66.92;100880.31;10401848;28;20602;-71
2021/01/11 09:14:52;;;;;;;16.08;13.50;;;;;;;0.26;66.32;100888.84;10404759;28;20482;-69
2021/01/11 09:19:58;;;;;;;21.10;15.35;;;;;;;0.20;67.19;100900.34;10415101;28;20572;-71
2021/01/11 09:25:10;;;;;;;21.30;17.38;;;;;;;0.33;69.18;100895.59;10417587;28;20100;-71
2021/01/11 09:30:12;;;;;;;20.77;17.27;;;;;;;0.37;67.85;100899.84;10407101;28;20049;-71
2021/01/11 09:35:15;;;;;;;23.40;16.45;;;;;;;0.59;67.19;100907.13;10403832;28;20119;-71
2021/01/11 09:40:17;;;;;;;16.20;14.15;;;;;;;0.53;66.33;100905.53;10411064;28;20049;-70
2021/01/11 09:45:19;;;;;;;16.77;13.68;;;;;;;0.60;66.67;100909.72;10405099;28;20072;-70
2021/01/11 09:50:20;;;;;;;18.48;13.38;;;;;;;0.46;66.41;100890.88;10407273;28;20131;-70
2021/01/11 09:55:21;;;;;;;17.90;14.45;;;;;;;0.08;67.45;100890.19;10403395;28;20053;-70
2021/01/11 10:00:23;;;;;;;16.63;14.30;;;;;;;0.18;67.73;100896.88;10402829;28;20050;-70
2021/01/11 10:05:24;;;;;;;16.58;13.38;;;;;;;0.47;67.33;100908.34;10406474;28;20073;-69
2021/01/11 10:10:26;;;;;;;17.88;14.13;;;;;;;0.80;66.66;100900.41;10408566;28;20697;-70
2021/01/11 10:15:28;;;;;;;22.73;16.02;;;;;;;1.12;65.90;100883.69;10406238;28;20065;-71
2021/01/11 10:20:29;;;;;;;17.45;14.52;;;;;;;1.76;64.49;100893.84;10406427;28;20533;-69
2021/01/11 10:25:32;;;;;;;17.42;15.02;;;;;;;2.39;62.54;100882.06;10413957;28;20050;-71
2021/01/11 10:30:33;;;;;;;20.52;15.63;;;;;;;2.86;61.01;100881.22;10412617;28;20473;-71
2021/01/11 10:35:34;;;;;;;19.02;15.57;;;;;;;2.54;60.66;100864.88;10413246;28;20056;-71
2021/01/11 10:40:35;;;;;;;18.45;15.95;;;;;;;2.01;61.60;100855.41;10411496;28;20095;-69
2021/01/11 10:45:37;;;;;;;17.95;15.35;;;;;;;2.19;62.18;100853.88;10386211;28;20702;-70
2021/01/11 10:50:38;;;;;;;19.52;14.70;;;;;;;2.66;60.49;100861.78;10385183;28;20515;-68
2021/01/11 10:55:39;;;;;;;19.48;15.32;;;;;;;4.42;55.87;100857.16;10390310;28;20072;-67
2021/01/11 11:00:40;;;;;;;20.00;16.25;;;;;;;6.25;50.92;100844.75;10384082;28;20108;-67
2021/01/11 11:05:42;;;;;;;19.20;15.85;;;;;;;7.80;47.78;100847.56;10382543;28;20065;-67
2021/01/11 11:10:43;;;;;;;18.08;16.25;;;;;;;7.84;45.96;100832.34;10384157;28;20050;-68
2021/01/11 11:15:45;;;;;;;20.20;16.65;;;;;;;8.28;44.82;100826.13;10382670;28;20133;-68
2021/01/11 11:20:47;;;;;;;18.23;16.27;;;;;;;8.78;43.72;100814.19;10382474;28;20081;-67
2021/01/11 11:25:48;;;;;;;17.98;16.08;;;;;;;10.22;40.19;100805.47;10382637;28;20955;-67
2021/01/11 11:30:50;;;;;;;18.55;15.25;;;;;;;9.20;42.76;100804.38;10357212;23;20044;-70
2021/01/11 11:35:52;;;;;;;18.90;16.25;;;;;;;8.42;43.34;100812.88;10410617;28;20088;-70
2021/01/11 11:40:53;;;;;;;19.20;17.13;;;;;;;9.72;41.60;100784.06;10421428;28;20518;-70
2021/01/11 11:45:54;;;;;;;17.60;15.70;;;;;;;10.79;39.07;100776.59;10432993;28;20076;-71
2021/01/11 11:50:56;;;;;;;17.35;15.57;;;;;;;13.02;35.44;100769.16;10454085;28;20048;-70
2021/01/11 11:55:58;;;;;;;16.33;14.63;;;;;;;14.24;32.43;100748.13;10424502;28;20049;-70
2021/01/11 12:00:59;;;;;;;21.25;18.67;;;;;;;15.10;30.88;100734.22;10434272;28;20064;-70
2021/01/11 12:06:00;;;;;;;17.08;15.40;;;;;;;14.53;31.52;100727.78;10462555;28;20029;-68
2021/01/11 12:11:01;;;;;;;14.07;12.77;;;;;;;14.56;31.26;100724.81;10457486;28;20575;-70
2021/01/11 12:16:07;;;;;;;15.43;13.93;;;;;;;15.39;29.62;100698.47;10423999;28;20049;-68
2021/01/11 12:21:08;;;;;;;16.15;14.65;;;;;;;15.40;30.07;100694.78;10422107;28;20135;-69
2021/01/11 12:26:10;;;;;;;15.43;13.82;;;;;;;13.62;31.17;100691.09;10420446;28;20553;-71
2021/01/11 12:31:11;;;;;;;15.98;14.48;;;;;;;11.07;35.68;100674.19;10418517;28;20052;-70
2021/01/11 12:36:12;;;;;;;15.27;13.77;;;;;;;8.98;39.60;100666.84;10422280;28;20057;-69
2021/01/11 12:41:16;;;;;;;16.15;14.45;;;;;;;7.18;43.73;100665.78;10422263;28;20072;-69
2021/01/11 12:46:19;;;;;;;14.85;13.20;;;;;;;6.78;45.52;100654.06;10406730;28;20300;-67
2021/01/11 12:51:22;;;;;;;16.10;14.48;;;;;;;6.42;46.58;100645.50;10424642;28;20056;-67
2021/01/11 12:56:25;;;;;;;17.02;15.20;;;;;;;6.04;47.43;100652.97;10441723;28;20043;-68
2021/01/11 13:01:29;;;;;;;17.40;15.57;;;;;;;5.54;49.06;100647.66;10433736;28;20055;-69
2021/01/11 13:06:36;;;;;;;17.20;15.15;;;;;;;5.30;49.35;100655.94;10423567;28;20045;-71
2021/01/11 13:11:38;;;;;;;16.35;14.45;;;;;;;5.11;49.89;100650.72;10431170;28;20056;-68
2021/01/11 13:16:40;;;;;;;21.27;16.65;;;;;;;4.86;50.73;100653.75;10444630;28;20049;-70
2021/01/11 13:21:41;;;;;;;17.55;14.75;;;;;;;4.53;51.29;100653.66;10453654;28;20037;-69
2021/01/11 13:26:47;;;;;;;14.40;12.85;;;;;;;4.30;51.59;100649.50;10420184;28;20048;-70
2021/01/11 13:31:49;;;;;;;15.20;12.95;;;;;;;4.38;50.95;100634.16;10420821;28;20142;-69
2021/01/11 13:36:51;;;;;;;17.70;14.75;;;;;;;7.42;44.64;100626.38;10417468;28;20148;-69
2021/01/11 13:41:52;;;;;;;16.17;14.02;;;;;;;11.98;34.38;100611.16;10418465;28;20053;-69
2021/01/11 13:46:53;;;;;;;15.27;13.60;;;;;;;14.15;29.66;100612.41;10417538;28;20119;-69
2021/01/11 13:51:55;;;;;;;15.13;13.48;;;;;;;11.01;34.30;100623.19;10418148;28;20652;-68
2021/01/11 13:56:57;;;;;;;15.43;13.82;;;;;;;9.24;38.30;100628.84;10421355;28;20122;-69
2021/01/11 14:01:59;;;;;;;15.65;14.10;;;;;;;7.37;42.65;100623.19;10424500;28;20637;-68
2021/01/11 14:07:01;;;;;;;16.48;13.95;;;;;;;5.76;46.58;100625.34;10423550;28;20056;-69
2021/01/11 14:12:02;;;;;;;16.63;13.85;;;;;;;5.18;48.48;100627.53;10429357;28;20307;-71
2021/01/11 14:17:03;;;;;;;15.73;13.95;;;;;;;4.87;49.53;100625.63;10427056;28;20073;-69
2021/01/11 14:22:05;;;;;;;16.20;12.25;;;;;;;4.75;49.71;100616.53;10451633;28;20127;-71
2021/01/11 14:27:07;;;;;;;15.40;13.80;;;;;;;4.32;51.53;100624.78;10440732;28;20041;-70
2021/01/11 14:32:08;;;;;;;16.25;13.95;;;;;;;4.02;51.47;100613.94;10470767;28;20060;-68
2021/01/11 14:37:09;;;;;;;17.00;13.20;;;;;;;3.80;51.90;100621.97;10436267;28;20099;-69
2021/01/11 14:42:11;;;;;;;15.25;13.30;;;;;;;3.80;52.75;100614.06;10447443;28;20094;-71
2021/01/11 14:47:12;;;;;;;16.80;14.50;;;;;;;3.63;52.84;100614.84;10464452;28;20053;-71
2021/01/11 14:52:13;;;;;;;18.80;14.27;;;;;;;3.66;53.00;100610.31;10469924;28;20068;-69
2021/01/11 14:57:15;;;;;;;15.18;13.57;;;;;;;3.32;53.80;100603.94;10449261;28;20079;-69
2021/01/11 15:02:16;;;;;;;15.75;13.80;;;;;;;3.15;54.32;100609.97;10450327;28;20057;-69
2021/01/11 15:07:17;;;;;;;15.27;13.23;;;;;;;2.99;55.12;100598.41;10440200;28;20086;-68
2021/01/11 15:12:19;;;;;;;15.75;13.95;;;;;;;2.94;55.43;100600.38;10426106;28;20049;-70
2021/01/11 15:17:20;;;;;;;17.27;14.07;;;;;;;2.97;55.85;100608.13;10426239;28;20135;-69
2021/01/11 15:22:23;;;;;;;14.40;12.52;;;;;;;2.86;56.07;100602.47;10423203;28;20550;-68
2021/01/11 15:27:24;;;;;;;16.88;12.98;;;;;;;2.83;56.28;100599.03;10428713;28;20048;-67
2021/01/11 15:32:25;;;;;;;15.57;13.02;;;;;;;2.70;56.62;100592.59;10453135;28;20056;-70
2021/01/11 15:37:27;;;;;;;17.42;13.23;;;;;;;2.55;57.32;100593.25;10437143;28;20081;-68
2021/01/11 15:42:28;;;;;;;16.38;13.07;;;;;;;2.62;56.88;100581.56;10426593;28;20100;-69
2021/01/11 15:47:29;;;;;;;16.50;13.23;;;;;;;2.43;56.50;100582.34;10427947;28;21594;-68
2021/01/11 15:52:39;;;;;;;17.00;13.00;;;;;;;2.56;56.70;100574.78;10424012;28;20555;-70
2021/01/11 15:57:42;;;;;;;20.13;14.50;;;;;;;2.60;56.26;100579.00;10422812;28;20044;-70
2021/01/11 16:02:44;;;;;;;15.82;13.25;;;;;;;2.61;56.30;100571.97;10426310;28;20049;-69
2021/01/11 16:07:47;;;;;;;16.05;12.80;;;;;;;2.53;56.16;100558.31;10452407;28;20045;-70
2021/01/11 16:12:48;;;;;;;17.35;13.40;;;;;;;2.52;55.91;100546.91;10432189;28;20394;-70
2021/01/11 16:17:49;;;;;;;17.58;12.85;;;;;;;2.39;56.30;100541.34;10435173;28;20041;-68
2021/01/11 16:22:50;;;;;;;18.02;12.50;;;;;;;2.39;56.29;100536.09;10435086;28;20137;-68
2021/01/11 16:27:52;;;;;;;15.65;13.55;;;;;;;2.30;55.86;100536.47;10454096;28;20044;-67
2021/01/11 16:32:53;;;;;;;18.92;15.38;;;;;;;2.41;56.03;100539.50;10426376;28;20049;-70
2021/01/11 16:38:01;;;;;;;17.17;14.10;;;;;;;2.30;56.78;100536.47;10425920;28;20090;-68
2021/01/11 16:43:03;;;;;;;18.80;14.82;;;;;;;2.34;56.93;100537.19;10434266;28;20048;-68
2021/01/11 16:48:04;;;;;;;18.80;15.07;;;;;;;2.40;57.29;100537.81;10437082;28;20209;-69
2021/01/11 16:53:06;;;;;;;16.92;15.13;;;;;;;2.43;57.32;100521.91;10436138;28;20079;-68
2021/01/11 16:58:07;;;;;;;18.63;14.90;;;;;;;2.31;58.02;100535.53;10431554;28;20188;-68
2021/01/11 17:03:08;;;;;;;20.02;15.55;;;;;;;2.38;58.56;100515.13;10424377;28;20709;-68
2021/01/11 17:08:10;;;;;;;16.73;14.23;;;;;;;2.24;58.94;100518.34;10426809;28;20051;-68
2021/01/11 17:13:12;;;;;;;19.50;14.35;;;;;;;2.22;59.72;100513.16;10455831;28;20051;-68
2021/01/11 17:18:13;;;;;;;18.17;15.65;;;;;;;2.29;59.26;100511.13;10430012;28;20045;-68
2021/01/11 17:23:14;;;;;;;20.63;15.48;;;;;;;2.19;60.11;100522.91;10429063;28;20056;-68
2021/01/11 17:28:17;;;;;;;18.75;14.88;;;;;;;2.22;59.65;100520.16;10443653;23;20033;-71
2021/01/11 17:33:18;;;;;;;15.90;13.07;;;;;;;2.09;60.01;100514.59;10410147;28;20111;-69
2021/01/11 17:38:19;;;;;;;19.00;15.85;;;;;;;2.06;60.02;100502.41;10425663;28;20130;-68
2021/01/11 17:43:20;;;;;;;18.83;16.58;;;;;;;2.06;60.81;100512.94;10394274;28;20064;-69
2021/01/11 17:48:22;;;;;;;16.67;13.88;;;;;;;1.99;60.02;100506.22;10388455;28;20053;-69
2021/01/11 17:53:23;;;;;;;17.55;12.98;;;;;;;2.06;59.63;100485.81;10415732;28;20041;-70
2021/01/11 17:58:25;;;;;;;18.08;15.43;;;;;;;2.04;59.99;100491.13;10397345;28;20045;-67
2021/01/11 18:03:26;;;;;;;15.68;13.48;;;;;;;1.81;60.43;100480.72;10396018;28;20498;-68
2021/01/11 18:08:27;;;;;;;18.80;14.25;;;;;;;1.87;60.33;100477.84;10397060;28;20576;-68
2021/01/11 18:13:29;;;;;;;15.98;11.93;;;;;;;1.80;60.42;100484.25;10396153;28;20152;-69
2021/01/11 18:18:31;;;;;;;18.70;12.35;;;;;;;1.63;60.72;100477.91;10394061;28;20208;-69
2021/01/11 18:23:32;;;;;;;14.20;12.57;;;;;;;1.63;60.89;100488.41;10400088;28;20080;-68
2021/01/11 18:28:35;;;;;;;14.27;12.52;;;;;;;1.66;61.10;100495.31;10395918;28;20067;-71
2021/01/11 18:33:37;;;;;;;15.07;12.45;;;;;;;1.79;60.95;100472.91;10442015;28;20095;-71
2021/01/11 18:38:38;;;;;;;17.48;13.48;;;;;;;1.85;60.75;100474.44;10445435;28;20041;-71
2021/01/11 18:43:39;;;;;;;15.32;13.13;;;;;;;1.74;61.36;100465.22;10429735;28;20041;-70
2021/01/11 18:48:45;;;;;;;16.42;13.73;;;;;;;1.75;61.14;100464.28;10410493;28;20115;-71
2021/01/11 18:53:46;;;;;;;14.63;12.02;;;;;;;1.89;60.89;100448.00;10394001;28;20095;-69
2021/01/11 18:59:08;;;;;;;17.92;13.90;;;;;;;1.77;61.18;100454.59;10397673;28;20052;-71
2021/01/11 19:04:11;;;;;;;15.38;12.55;;;;;;;1.79;61.38;100461.53;10403755;28;20120;-70
2021/01/11 19:09:12;;;;;;;19.70;14.52;;;;;;;1.74;61.48;100454.72;10404273;28;20099;-72
2021/01/11 19:14:17;;;;;;;17.30;14.68;;;;;;;1.80;61.39;100421.25;10404633;28;20069;-70
2021/01/11 19:19:19;;;;;;;16.73;13.95;;;;;;;1.74;61.30;100440.72;10402993;28;20063;-74
2021/01/11 19:24:21;;;;;;;19.52;14.88;;;;;;;1.63;62.17;100425.41;10399837;28;20057;-70
2021/01/11 19:29:22;;;;;;;17.30;14.60;;;;;;;1.81;61.78;100412.47;10423571;28;20061;-70
2021/01/11 19:34:23;;;;;;;20.88;17.40;;;;;;;1.91;61.30;100404.13;10427300;28;20053;-72
2021/01/11 19:39:24;;;;;;;17.48;14.38;;;;;;;1.90;61.74;100406.81;10418923;28;20037;-73
2021/01/11 19:44:26;;;;;;;18.65;15.25;;;;;;;1.86;61.82;100403.50;10425804;28;20103;-70
2021/01/11 19:49:27;;;;;;;19.63;14.63;;;;;;;1.81;62.08;100391.47;10394492;28;20099;-69
2021/01/11 19:54:29;;;;;;;17.88;14.48;;;;;;;1.79;62.03;100373.16;10405576;28;21847;-73
2021/01/11 19:59:30;;;;;;;18.63;15.02;;;;;;;1.75;65.49;100379.44;10419635;28;20066;-71
2021/01/11 20:04:31;;;;;;;18.08;15.38;;;;;;;2.11;62.88;100379.63;10390638;28;20053;-69
2021/01/11 20:09:33;;;;;;;18.63;14.40;;;;;;;2.26;61.77;100377.28;10393827;28;20125;-69
2021/01/11 20:14:34;;;;;;;18.77;15.27;;;;;;;2.42;61.11;100362.53;10397074;28;20049;-72
2021/01/11 20:19:35;;;;;;;21.88;17.98;;;;;;;2.21;60.41;100359.09;10396610;28;20050;-70
2021/01/11 20:24:36;;;;;;;20.13;16.60;;;;;;;1.99;60.60;100359.16;10396708;28;20096;-74
2021/01/11 20:29:40;;;;;;;18.08;14.45;;;;;;;1.78;61.68;100371.44;10391761;28;20330;-70
2021/01/11 20:34:41;;;;;;;19.17;14.70;;;;;;;1.84;61.35;100354.59;10391368;28;20049;-69
2021/01/11 20:39:43;;;;;;;20.23;15.15;;;;;;;1.75;61.88;100355.81;10426312;28;20057;-71
2021/01/11 20:44:44;;;;;;;18.67;15.43;;;;;;;1.77;61.64;100360.09;10390767;28;20045;-70
2021/01/11 20:49:45;;;;;;;20.00;15.32;;;;;;;1.79;61.66;100331.16;10387957;28;20096;-72
2021/01/11 20:54:47;;;;;;;20.00;15.23;;;;;;;1.82;61.33;100324.91;10391474;28;20053;-73
2021/01/11 20:59:48;;;;;;;20.33;16.40;;;;;;;1.77;62.10;100302.34;10397983;28;20104;-71
2021/01/11 21:04:50;;;;;;;19.80;14.77;;;;;;;1.69;62.00;100314.94;10394828;28;20476;-70
2021/01/11 21:09:51;;;;;;;18.55;14.75;;;;;;;1.84;61.74;100317.84;10401611;28;20053;-70
2021/01/11 21:14:52;;;;;;;17.88;14.63;;;;;;;1.81;61.56;100302.22;10383401;28;20057;-73
2021/01/11 21:19:53;;;;;;;16.45;13.73;;;;;;;1.75;61.82;100298.09;10384582;28;20134;-70
2021/01/11 21:24:54;;;;;;;17.40;14.18;;;;;;;1.67;62.15;100290.53;10406757;28;20046;-74
2021/01/11 21:29:56;;;;;;;16.63;13.35;;;;;;;1.67;62.31;100276.59;10427457;28;20045;-72
2021/01/11 21:34:57;;;;;;;17.80;14.93;;;;;;;1.79;61.58;100262.03;10385895;28;20535;-72
2021/01/11 21:39:58;;;;;;;17.75;14.27;;;;;;;1.85;62.15;100267.06;10378309;28;20080;-71
2021/01/11 21:44:59;;;;;;;18.42;14.63;;;;;;;2.00;61.65;100286.50;10380590;28;20465;-71
2021/01/11 21:50:01;;;;;;;17.98;14.52;;;;;;;1.86;61.83;100248.59;10391409;28;20557;-70
2021/01/11 21:55:02;;;;;;;16.50;14.38;;;;;;;1.87;61.72;100262.56;10389848;28;20052;-73
2021/01/11 22:00:04;;;;;;;18.48;14.48;;;;;;;1.80;62.38;100242.75;10382889;28;20064;-71
2021/01/11 22:05:06;;;;;;;17.85;15.23;;;;;;;1.88;62.61;100246.75;10383968;28;20107;-72
2021/01/11 22:10:08;;;;;;;19.17;15.35;;;;;;;1.84;62.73;100252.22;10390777;28;20135;-73
2021/01/11 22:15:10;;;;;;;19.08;14.93;;;;;;;1.68;63.18;100247.66;10386489;28;20548;-71
2021/01/11 22:20:12;;;;;;;22.58;15.93;;;;;;;1.66;63.55;100246.00;10386949;28;20041;-71
2021/01/11 22:25:14;;;;;;;19.70;15.00;;;;;;;1.75;63.51;100216.72;10399287;28;20053;-71
2021/01/11 22:30:17;;;;;;;19.00;15.25;;;;;;;1.72;63.67;100209.81;10395105;28;20503;-71
2021/01/11 22:35:18;;;;;;;20.00;16.75;;;;;;;1.57;63.86;100184.28;10385105;28;20103;-71
2021/01/11 22:40:19;;;;;;;19.20;15.57;;;;;;;1.53;64.16;100190.56;10386065;28;20068;-70
2021/01/11 22:45:21;;;;;;;20.52;16.38;;;;;;;1.40;64.34;100204.22;10398948;28;20042;-73
2021/01/11 22:50:22;;;;;;;22.40;16.95;;;;;;;1.38;64.75;100190.34;10428939;28;20057;-71